sensor_id;sensor_type;location;lat;lon;timestamp;P1;durP1;ratioP1;P2;durP2;ratioP2
70026;SDS011;57506;50.092;15.804;2023-02-27T00:01:59;8.83;;;2.13;;
70026;SDS011;57506;50.092;15.804;2023-02-27T00:04:25;5.97;;;2.10;;
70026;SDS011;57506;50.092;15.804;2023-02-27T00:06:50;9.27;;;2.43;;
70026;SDS011;57506;50.092;15.804;2023-02-27T00:09:16;8.35;;;2.58;;
70026;SDS011;57506;50.092;15.804;2023-02-27T00:11:41;10.80;;;2.30;;
70026;SDS011;57506;50.092;15.804;2023-02-27T00:14:08;8.10;;;2.80;;
70026;SDS011;57506;50.092;15.804;2023-02-27T00:16:33;9.43;;;2.67;;
70026;SDS011;57506;50.092;15.804;2023-02-27T00:18:59;7.88;;;2.42;;
70026;SDS011;57506;50.092;15.804;2023-02-27T00:21:28;6.93;;;2.55;;
70026;SDS011;57506;50.092;15.804;2023-02-27T00:23:54;11.45;;;2.70;;
70026;SDS011;57506;50.092;15.804;2023-02-27T00:26:19;7.07;;;2.53;;
70026;SDS011;57506;50.092;15.804;2023-02-27T00:28:45;8.90;;;2.40;;
70026;SDS011;57506;50.092;15.804;2023-02-27T00:31:10;6.53;;;2.40;;
70026;SDS011;57506;50.092;15.804;2023-02-27T00:33:36;8.13;;;2.90;;
70026;SDS011;57506;50.092;15.804;2023-02-27T00:36:01;12.03;;;3.07;;
70026;SDS011;57506;50.092;15.804;2023-02-27T00:38:27;9.07;;;2.80;;
70026;SDS011;57506;50.092;15.804;2023-02-27T00:40:53;12.32;;;2.92;;
70026;SDS011;57506;50.092;15.804;2023-02-27T00:43:19;9.38;;;2.50;;
70026;SDS011;57506;50.092;15.804;2023-02-27T00:45:46;8.33;;;2.50;;
70026;SDS011;57506;50.092;15.804;2023-02-27T00:48:12;11.05;;;2.78;;
70026;SDS011;57506;50.092;15.804;2023-02-27T00:50:38;10.07;;;2.65;;
70026;SDS011;57506;50.092;15.804;2023-02-27T00:53:03;10.33;;;3.20;;
70026;SDS011;57506;50.092;15.804;2023-02-27T00:55:29;10.10;;;3.03;;
70026;SDS011;57506;50.092;15.804;2023-02-27T00:57:54;11.60;;;3.00;;
70026;SDS011;57506;50.092;15.804;2023-02-27T01:00:20;12.07;;;2.77;;
70026;SDS011;57506;50.092;15.804;2023-02-27T01:02:46;8.97;;;2.73;;
70026;SDS011;57506;50.092;15.804;2023-02-27T01:05:11;9.52;;;3.08;;
70026;SDS011;57506;50.092;15.804;2023-02-27T01:07:37;10.77;;;3.50;;
70026;SDS011;57506;50.092;15.804;2023-02-27T01:10:03;14.10;;;3.73;;
70026;SDS011;57506;50.092;15.804;2023-02-27T01:12:29;12.45;;;3.53;;
70026;SDS011;57506;50.092;15.804;2023-02-27T01:14:54;10.40;;;3.30;;
70026;SDS011;57506;50.092;15.804;2023-02-27T01:17:20;11.57;;;3.40;;
70026;SDS011;57506;50.092;15.804;2023-02-27T01:19:45;8.90;;;3.23;;
70026;SDS011;57506;50.092;15.804;2023-02-27T01:22:11;11.47;;;3.63;;
70026;SDS011;57506;50.092;15.804;2023-02-27T01:24:37;10.65;;;3.13;;
70026;SDS011;57506;50.092;15.804;2023-02-27T01:27:02;8.03;;;3.13;;
70026;SDS011;57506;50.092;15.804;2023-02-27T01:29:28;10.13;;;3.03;;
70026;SDS011;57506;50.092;15.804;2023-02-27T01:31:53;9.55;;;3.13;;
70026;SDS011;57506;50.092;15.804;2023-02-27T01:34:19;8.57;;;3.07;;
70026;SDS011;57506;50.092;15.804;2023-02-27T01:36:45;9.73;;;3.03;;
70026;SDS011;57506;50.092;15.804;2023-02-27T01:39:10;9.20;;;3.13;;
70026;SDS011;57506;50.092;15.804;2023-02-27T01:41:36;8.70;;;3.27;;
70026;SDS011;57506;50.092;15.804;2023-02-27T01:44:06;10.63;;;3.53;;
70026;SDS011;57506;50.092;15.804;2023-02-27T01:46:35;10.23;;;3.33;;
70026;SDS011;57506;50.092;15.804;2023-02-27T01:51:37;10.57;;;3.08;;
70026;SDS011;57506;50.092;15.804;2023-02-27T01:54:07;12.93;;;3.38;;
70026;SDS011;57506;50.092;15.804;2023-02-27T01:56:33;9.32;;;2.70;;
70026;SDS011;57506;50.092;15.804;2023-02-27T01:59:03;8.95;;;3.03;;
70026;SDS011;57506;50.092;15.804;2023-02-27T02:01:31;9.60;;;3.35;;
70026;SDS011;57506;50.092;15.804;2023-02-27T02:04:18;8.68;;;3.20;;
70026;SDS011;57506;50.092;15.804;2023-02-27T02:06:53;9.82;;;2.75;;
70026;SDS011;57506;50.092;15.804;2023-02-27T02:09:23;8.40;;;3.13;;
70026;SDS011;57506;50.092;15.804;2023-02-27T02:11:50;9.90;;;3.42;;
70026;SDS011;57506;50.092;15.804;2023-02-27T02:14:17;9.48;;;3.25;;
70026;SDS011;57506;50.092;15.804;2023-02-27T02:36:46;10.45;;;3.58;;
70026;SDS011;57506;50.092;15.804;2023-02-27T02:41:59;9.97;;;3.53;;
70026;SDS011;57506;50.092;15.804;2023-02-27T02:55:47;10.43;;;3.33;;
70026;SDS011;57506;50.092;15.804;2023-02-27T02:58:27;11.77;;;3.80;;
70026;SDS011;57506;50.092;15.804;2023-02-27T03:06:57;12.10;;;3.38;;
70026;SDS011;57506;50.092;15.804;2023-02-27T03:09:33;11.75;;;3.65;;
70026;SDS011;57506;50.092;15.804;2023-02-27T03:12:11;9.18;;;3.25;;
70026;SDS011;57506;50.092;15.804;2023-02-27T03:14:45;11.18;;;3.38;;
70026;SDS011;57506;50.092;15.804;2023-02-27T03:17:16;11.95;;;3.22;;
70026;SDS011;57506;50.092;15.804;2023-02-27T03:22:14;7.67;;;3.20;;
70026;SDS011;57506;50.092;15.804;2023-02-27T03:24:48;10.23;;;2.88;;
70026;SDS011;57506;50.092;15.804;2023-02-27T03:27:17;9.48;;;3.50;;
70026;SDS011;57506;50.092;15.804;2023-02-27T03:29:49;14.05;;;3.38;;
70026;SDS011;57506;50.092;15.804;2023-02-27T03:34:54;8.03;;;2.73;;
70026;SDS011;57506;50.092;15.804;2023-02-27T03:37:30;9.70;;;3.20;;
70026;SDS011;57506;50.092;15.804;2023-02-27T03:47:59;9.57;;;2.92;;
70026;SDS011;57506;50.092;15.804;2023-02-27T03:50:26;11.77;;;3.75;;
70026;SDS011;57506;50.092;15.804;2023-02-27T03:52:51;9.20;;;3.30;;
70026;SDS011;57506;50.092;15.804;2023-02-27T03:55:22;8.73;;;3.20;;
70026;SDS011;57506;50.092;15.804;2023-02-27T03:57:52;10.40;;;3.53;;
70026;SDS011;57506;50.092;15.804;2023-02-27T04:00:19;9.88;;;3.55;;
70026;SDS011;57506;50.092;15.804;2023-02-27T04:02:46;9.48;;;3.03;;
70026;SDS011;57506;50.092;15.804;2023-02-27T04:05:17;8.27;;;2.87;;
70026;SDS011;57506;50.092;15.804;2023-02-27T04:21:50;9.70;;;2.78;;
70026;SDS011;57506;50.092;15.804;2023-02-27T04:27:13;7.93;;;2.55;;
70026;SDS011;57506;50.092;15.804;2023-02-27T04:30:00;8.38;;;2.50;;
70026;SDS011;57506;50.092;15.804;2023-02-27T04:35:26;8.70;;;2.75;;
70026;SDS011;57506;50.092;15.804;2023-02-27T04:38:08;11.40;;;2.58;;
70026;SDS011;57506;50.092;15.804;2023-02-27T04:40:38;10.85;;;2.80;;
70026;SDS011;57506;50.092;15.804;2023-02-27T04:43:27;7.63;;;2.47;;
70026;SDS011;57506;50.092;15.804;2023-02-27T04:45:55;7.67;;;2.40;;
70026;SDS011;57506;50.092;15.804;2023-02-27T04:51:11;7.53;;;2.70;;
70026;SDS011;57506;50.092;15.804;2023-02-27T04:53:42;7.85;;;2.67;;
70026;SDS011;57506;50.092;15.804;2023-02-27T04:56:21;6.40;;;2.20;;
70026;SDS011;57506;50.092;15.804;2023-02-27T04:58:53;7.03;;;2.50;;
70026;SDS011;57506;50.092;15.804;2023-02-27T05:01:33;8.13;;;2.83;;
70026;SDS011;57506;50.092;15.804;2023-02-27T05:04:02;7.53;;;2.60;;
70026;SDS011;57506;50.092;15.804;2023-02-27T05:06:34;6.47;;;2.17;;
70026;SDS011;57506;50.092;15.804;2023-02-27T05:09:07;7.97;;;2.40;;
70026;SDS011;57506;50.092;15.804;2023-02-27T05:11:43;9.43;;;2.70;;
70026;SDS011;57506;50.092;15.804;2023-02-27T05:14:16;9.02;;;2.40;;
70026;SDS011;57506;50.092;15.804;2023-02-27T05:16:48;10.18;;;2.10;;
70026;SDS011;57506;50.092;15.804;2023-02-27T05:19:15;8.25;;;2.20;;
70026;SDS011;57506;50.092;15.804;2023-02-27T05:21:51;10.73;;;2.50;;
70026;SDS011;57506;50.092;15.804;2023-02-27T05:30:30;8.98;;;2.50;;
70026;SDS011;57506;50.092;15.804;2023-02-27T05:36:16;8.40;;;2.75;;
70026;SDS011;57506;50.092;15.804;2023-02-27T05:38:47;7.57;;;2.20;;
70026;SDS011;57506;50.092;15.804;2023-02-27T05:41:21;7.18;;;2.05;;
70026;SDS011;57506;50.092;15.804;2023-02-27T05:43:56;9.02;;;2.50;;
70026;SDS011;57506;50.092;15.804;2023-02-27T05:46:30;8.05;;;2.08;;
70026;SDS011;57506;50.092;15.804;2023-02-27T05:49:08;9.00;;;2.15;;
70026;SDS011;57506;50.092;15.804;2023-02-27T05:51:48;9.43;;;2.37;;
70026;SDS011;57506;50.092;15.804;2023-02-27T05:54:17;9.02;;;2.42;;
70026;SDS011;57506;50.092;15.804;2023-02-27T05:57:06;10.23;;;2.00;;
70026;SDS011;57506;50.092;15.804;2023-02-27T05:59:39;8.38;;;2.30;;
70026;SDS011;57506;50.092;15.804;2023-02-27T06:02:11;10.15;;;2.60;;
70026;SDS011;57506;50.092;15.804;2023-02-27T06:04:37;8.30;;;2.23;;
70026;SDS011;57506;50.092;15.804;2023-02-27T06:07:03;7.15;;;2.22;;
70026;SDS011;57506;50.092;15.804;2023-02-27T06:09:29;7.43;;;2.20;;
70026;SDS011;57506;50.092;15.804;2023-02-27T06:11:56;8.80;;;2.47;;
70026;SDS011;57506;50.092;15.804;2023-02-27T06:14:24;8.80;;;2.60;;
70026;SDS011;57506;50.092;15.804;2023-02-27T06:16:49;10.03;;;1.97;;
70026;SDS011;57506;50.092;15.804;2023-02-27T06:19:15;7.47;;;2.08;;
70026;SDS011;57506;50.092;15.804;2023-02-27T06:21:40;8.67;;;2.23;;
70026;SDS011;57506;50.092;15.804;2023-02-27T06:24:06;11.40;;;2.07;;
70026;SDS011;57506;50.092;15.804;2023-02-27T06:26:31;6.57;;;2.00;;
70026;SDS011;57506;50.092;15.804;2023-02-27T06:28:57;9.17;;;2.17;;
70026;SDS011;57506;50.092;15.804;2023-02-27T06:31:23;9.02;;;1.92;;
70026;SDS011;57506;50.092;15.804;2023-02-27T06:33:50;7.53;;;2.38;;
70026;SDS011;57506;50.092;15.804;2023-02-27T06:36:15;6.97;;;1.67;;
70026;SDS011;57506;50.092;15.804;2023-02-27T06:38:41;8.00;;;2.10;;
70026;SDS011;57506;50.092;15.804;2023-02-27T06:41:06;11.63;;;2.22;;
70026;SDS011;57506;50.092;15.804;2023-02-27T06:43:32;6.27;;;1.73;;
70026;SDS011;57506;50.092;15.804;2023-02-27T06:46:00;6.22;;;1.63;;
70026;SDS011;57506;50.092;15.804;2023-02-27T06:48:26;5.97;;;1.70;;
70026;SDS011;57506;50.092;15.804;2023-02-27T06:50:52;7.27;;;1.83;;
70026;SDS011;57506;50.092;15.804;2023-02-27T06:53:19;8.77;;;1.75;;
70026;SDS011;57506;50.092;15.804;2023-02-27T06:55:45;7.35;;;1.70;;
70026;SDS011;57506;50.092;15.804;2023-02-27T06:58:10;5.82;;;1.90;;
70026;SDS011;57506;50.092;15.804;2023-02-27T07:00:36;4.93;;;1.60;;
70026;SDS011;57506;50.092;15.804;2023-02-27T07:03:01;10.95;;;2.00;;
70026;SDS011;57506;50.092;15.804;2023-02-27T07:05:28;6.85;;;1.80;;
70026;SDS011;57506;50.092;15.804;2023-02-27T07:07:55;6.97;;;1.48;;
70026;SDS011;57506;50.092;15.804;2023-02-27T07:10:20;7.07;;;1.83;;
70026;SDS011;57506;50.092;15.804;2023-02-27T07:12:46;6.17;;;1.70;;
70026;SDS011;57506;50.092;15.804;2023-02-27T07:15:12;6.78;;;1.67;;
70026;SDS011;57506;50.092;15.804;2023-02-27T07:17:37;7.65;;;2.00;;
70026;SDS011;57506;50.092;15.804;2023-02-27T07:20:06;7.35;;;1.70;;
70026;SDS011;57506;50.092;15.804;2023-02-27T07:22:34;7.43;;;1.80;;
70026;SDS011;57506;50.092;15.804;2023-02-27T07:25:00;6.50;;;1.70;;
70026;SDS011;57506;50.092;15.804;2023-02-27T07:27:25;9.53;;;1.70;;
70026;SDS011;57506;50.092;15.804;2023-02-27T07:29:51;8.40;;;1.70;;
70026;SDS011;57506;50.092;15.804;2023-02-27T07:32:16;6.90;;;1.60;;
70026;SDS011;57506;50.092;15.804;2023-02-27T07:34:42;6.90;;;1.70;;
70026;SDS011;57506;50.092;15.804;2023-02-27T07:37:08;6.75;;;2.20;;
70026;SDS011;57506;50.092;15.804;2023-02-27T07:39:33;7.33;;;1.57;;
70026;SDS011;57506;50.092;15.804;2023-02-27T07:41:59;7.10;;;1.85;;
70026;SDS011;57506;50.092;15.804;2023-02-27T07:44:24;6.63;;;1.77;;
70026;SDS011;57506;50.092;15.804;2023-02-27T07:46:50;7.47;;;1.60;;
70026;SDS011;57506;50.092;15.804;2023-02-27T07:49:16;6.07;;;1.58;;
70026;SDS011;57506;50.092;15.804;2023-02-27T07:51:41;9.27;;;2.07;;
70026;SDS011;57506;50.092;15.804;2023-02-27T07:54:07;5.75;;;1.60;;
70026;SDS011;57506;50.092;15.804;2023-02-27T07:56:33;5.20;;;1.43;;
70026;SDS011;57506;50.092;15.804;2023-02-27T07:58:59;5.63;;;1.60;;
70026;SDS011;57506;50.092;15.804;2023-02-27T08:01:24;6.97;;;1.57;;
70026;SDS011;57506;50.092;15.804;2023-02-27T08:03:50;5.85;;;1.73;;
70026;SDS011;57506;50.092;15.804;2023-02-27T08:06:16;6.85;;;1.45;;
70026;SDS011;57506;50.092;15.804;2023-02-27T08:22:29;12.03;;;3.90;;
70026;SDS011;57506;50.092;15.804;2023-02-27T08:24:55;8.98;;;1.70;;
70026;SDS011;57506;50.092;15.804;2023-02-27T08:27:21;5.60;;;1.67;;
70026;SDS011;57506;50.092;15.804;2023-02-27T08:29:46;6.27;;;1.80;;
70026;SDS011;57506;50.092;15.804;2023-02-27T08:32:12;7.30;;;1.77;;
70026;SDS011;57506;50.092;15.804;2023-02-27T08:34:37;7.20;;;1.73;;
70026;SDS011;57506;50.092;15.804;2023-02-27T08:37:03;7.65;;;2.08;;
70026;SDS011;57506;50.092;15.804;2023-02-27T08:39:28;6.33;;;1.60;;
70026;SDS011;57506;50.092;15.804;2023-02-27T08:41:54;6.07;;;1.63;;
70026;SDS011;57506;50.092;15.804;2023-02-27T08:44:19;6.63;;;1.73;;
70026;SDS011;57506;50.092;15.804;2023-02-27T08:46:45;6.87;;;2.00;;
70026;SDS011;57506;50.092;15.804;2023-02-27T08:49:11;7.63;;;1.83;;
70026;SDS011;57506;50.092;15.804;2023-02-27T08:51:38;8.17;;;1.50;;
70026;SDS011;57506;50.092;15.804;2023-02-27T08:54:03;9.10;;;2.30;;
70026;SDS011;57506;50.092;15.804;2023-02-27T08:56:29;7.20;;;2.13;;
70026;SDS011;57506;50.092;15.804;2023-02-27T08:58:54;7.17;;;2.40;;
70026;SDS011;57506;50.092;15.804;2023-02-27T09:01:20;8.50;;;2.22;;
70026;SDS011;57506;50.092;15.804;2023-02-27T09:03:46;8.67;;;2.47;;
70026;SDS011;57506;50.092;15.804;2023-02-27T09:06:11;7.97;;;2.45;;
70026;SDS011;57506;50.092;15.804;2023-02-27T09:08:37;9.33;;;2.60;;
70026;SDS011;57506;50.092;15.804;2023-02-27T09:11:03;9.82;;;3.38;;
70026;SDS011;57506;50.092;15.804;2023-02-27T09:13:29;9.48;;;2.70;;
70026;SDS011;57506;50.092;15.804;2023-02-27T09:15:55;7.10;;;2.70;;
70026;SDS011;57506;50.092;15.804;2023-02-27T09:18:21;7.35;;;2.38;;
70026;SDS011;57506;50.092;15.804;2023-02-27T09:20:50;7.43;;;2.45;;
70026;SDS011;57506;50.092;15.804;2023-02-27T09:23:16;9.40;;;2.58;;
70026;SDS011;57506;50.092;15.804;2023-02-27T09:25:41;9.33;;;3.53;;
70026;SDS011;57506;50.092;15.804;2023-02-27T09:28:07;8.47;;;3.67;;
70026;SDS011;57506;50.092;15.804;2023-02-27T09:30:32;8.18;;;3.25;;
70026;SDS011;57506;50.092;15.804;2023-02-27T09:32:58;6.20;;;2.73;;
70026;SDS011;57506;50.092;15.804;2023-02-27T09:35:24;8.53;;;2.20;;
70026;SDS011;57506;50.092;15.804;2023-02-27T09:37:49;6.83;;;3.20;;
70026;SDS011;57506;50.092;15.804;2023-02-27T09:40:27;7.33;;;2.30;;
70026;SDS011;57506;50.092;15.804;2023-02-27T09:42:55;8.10;;;3.17;;
70026;SDS011;57506;50.092;15.804;2023-02-27T09:45:28;6.45;;;2.60;;
70026;SDS011;57506;50.092;15.804;2023-02-27T09:48:07;6.85;;;2.80;;
70026;SDS011;57506;50.092;15.804;2023-02-27T09:50:39;8.27;;;2.97;;
70026;SDS011;57506;50.092;15.804;2023-02-27T09:53:12;6.23;;;2.23;;
70026;SDS011;57506;50.092;15.804;2023-02-27T09:56:06;7.80;;;2.28;;
70026;SDS011;57506;50.092;15.804;2023-02-27T10:01:47;6.75;;;2.00;;
70026;SDS011;57506;50.092;15.804;2023-02-27T10:13:21;4.88;;;1.88;;
70026;SDS011;57506;50.092;15.804;2023-02-27T10:16:01;5.43;;;2.30;;
70026;SDS011;57506;50.092;15.804;2023-02-27T10:18:29;7.25;;;2.83;;
70026;SDS011;57506;50.092;15.804;2023-02-27T10:23:33;8.45;;;3.38;;
70026;SDS011;57506;50.092;15.804;2023-02-27T10:26:04;6.90;;;3.15;;
70026;SDS011;57506;50.092;15.804;2023-02-27T10:28:30;9.68;;;3.55;;
70026;SDS011;57506;50.092;15.804;2023-02-27T10:30:57;10.18;;;3.28;;
70026;SDS011;57506;50.092;15.804;2023-02-27T10:35:57;6.28;;;2.50;;
70026;SDS011;57506;50.092;15.804;2023-02-27T10:38:31;7.80;;;2.50;;
70026;SDS011;57506;50.092;15.804;2023-02-27T10:40:59;11.43;;;4.23;;
70026;SDS011;57506;50.092;15.804;2023-02-27T10:43:27;7.22;;;2.22;;
70026;SDS011;57506;50.092;15.804;2023-02-27T10:45:52;6.82;;;2.63;;
70026;SDS011;57506;50.092;15.804;2023-02-27T10:48:18;6.73;;;2.53;;
70026;SDS011;57506;50.092;15.804;2023-02-27T10:50:48;7.37;;;2.73;;
70026;SDS011;57506;50.092;15.804;2023-02-27T10:53:24;9.30;;;2.90;;
70026;SDS011;57506;50.092;15.804;2023-02-27T10:56:01;7.07;;;2.38;;
70026;SDS011;57506;50.092;15.804;2023-02-27T10:58:31;6.90;;;2.70;;
70026;SDS011;57506;50.092;15.804;2023-02-27T11:01:06;6.10;;;2.40;;
70026;SDS011;57506;50.092;15.804;2023-02-27T11:03:37;9.73;;;2.80;;
70026;SDS011;57506;50.092;15.804;2023-02-27T11:08:33;8.98;;;3.30;;
70026;SDS011;57506;50.092;15.804;2023-02-27T11:13:29;10.85;;;4.00;;
70026;SDS011;57506;50.092;15.804;2023-02-27T11:16:18;10.30;;;3.13;;
70026;SDS011;57506;50.092;15.804;2023-02-27T11:18:48;9.30;;;3.25;;
70026;SDS011;57506;50.092;15.804;2023-02-27T11:21:20;5.47;;;2.30;;
70026;SDS011;57506;50.092;15.804;2023-02-27T11:26:18;9.47;;;2.70;;
70026;SDS011;57506;50.092;15.804;2023-02-27T11:29:01;8.15;;;2.60;;
70026;SDS011;57506;50.092;15.804;2023-02-27T11:31:52;6.97;;;2.63;;
70026;SDS011;57506;50.092;15.804;2023-02-27T11:36:52;7.78;;;2.38;;
70026;SDS011;57506;50.092;15.804;2023-02-27T11:39:22;5.97;;;2.20;;
70026;SDS011;57506;50.092;15.804;2023-02-27T11:41:51;8.45;;;2.53;;
70026;SDS011;57506;50.092;15.804;2023-02-27T11:44:21;4.65;;;2.00;;
70026;SDS011;57506;50.092;15.804;2023-02-27T11:46:50;6.03;;;2.17;;
70026;SDS011;57506;50.092;15.804;2023-02-27T11:54:41;6.03;;;2.53;;
70026;SDS011;57506;50.092;15.804;2023-02-27T11:57:35;6.90;;;2.83;;
70026;SDS011;57506;50.092;15.804;2023-02-27T12:00:12;8.10;;;3.03;;
70026;SDS011;57506;50.092;15.804;2023-02-27T12:05:52;8.75;;;3.05;;
70026;SDS011;57506;50.092;15.804;2023-02-27T12:11:19;5.97;;;2.42;;
70026;SDS011;57506;50.092;15.804;2023-02-27T12:16:42;6.80;;;2.65;;
70026;SDS011;57506;50.092;15.804;2023-02-27T12:19:23;11.30;;;4.82;;
70026;SDS011;57506;50.092;15.804;2023-02-27T12:22:21;6.97;;;2.90;;
70026;SDS011;57506;50.092;15.804;2023-02-27T12:24:56;7.22;;;1.90;;
70026;SDS011;57506;50.092;15.804;2023-02-27T12:27:32;6.33;;;3.50;;
70026;SDS011;57506;50.092;15.804;2023-02-27T12:30:15;6.28;;;2.10;;
70026;SDS011;57506;50.092;15.804;2023-02-27T12:37:43;5.15;;;1.33;;
70026;SDS011;57506;50.092;15.804;2023-02-27T12:40:13;4.13;;;1.30;;
70026;SDS011;57506;50.092;15.804;2023-02-27T12:56:02;6.35;;;1.55;;
70026;SDS011;57506;50.092;15.804;2023-02-27T13:04:04;4.77;;;1.07;;
70026;SDS011;57506;50.092;15.804;2023-02-27T13:07:00;3.45;;;0.70;;
70026;SDS011;57506;50.092;15.804;2023-02-27T13:09:36;3.90;;;1.10;;
70026;SDS011;57506;50.092;15.804;2023-02-27T13:12:22;3.40;;;0.90;;
70026;SDS011;57506;50.092;15.804;2023-02-27T13:17:46;6.90;;;1.60;;
70026;SDS011;57506;50.092;15.804;2023-02-27T13:23:04;4.70;;;1.10;;
70026;SDS011;57506;50.092;15.804;2023-02-27T13:25:50;5.22;;;1.15;;
70026;SDS011;57506;50.092;15.804;2023-02-27T13:28:24;4.53;;;1.02;;
70026;SDS011;57506;50.092;15.804;2023-02-27T13:33:21;4.47;;;1.48;;
70026;SDS011;57506;50.092;15.804;2023-02-27T13:38:45;3.78;;;1.10;;
70026;SDS011;57506;50.092;15.804;2023-02-27T13:46:20;3.42;;;1.00;;
70026;SDS011;57506;50.092;15.804;2023-02-27T13:48:53;3.85;;;1.23;;
70026;SDS011;57506;50.092;15.804;2023-02-27T13:59:30;4.57;;;1.00;;
70026;SDS011;57506;50.092;15.804;2023-02-27T14:02:41;4.75;;;1.30;;
70026;SDS011;57506;50.092;15.804;2023-02-27T14:05:00;4.25;;;1.08;;
70026;SDS011;57506;50.092;15.804;2023-02-27T14:07:31;4.93;;;0.90;;
70026;SDS011;57506;50.092;15.804;2023-02-27T14:10:17;6.27;;;1.20;;
70026;SDS011;57506;50.092;15.804;2023-02-27T14:12:46;4.53;;;1.13;;
70026;SDS011;57506;50.092;15.804;2023-02-27T14:17:47;4.97;;;1.17;;
70026;SDS011;57506;50.092;15.804;2023-02-27T14:33:59;3.60;;;1.00;;
70026;SDS011;57506;50.092;15.804;2023-02-27T14:36:31;4.38;;;1.30;;
70026;SDS011;57506;50.092;15.804;2023-02-27T14:39:00;4.90;;;1.33;;
70026;SDS011;57506;50.092;15.804;2023-02-27T14:46:45;4.82;;;1.55;;
70026;SDS011;57506;50.092;15.804;2023-02-27T14:49:21;4.55;;;1.33;;
70026;SDS011;57506;50.092;15.804;2023-02-27T14:51:50;7.70;;;2.00;;
70026;SDS011;57506;50.092;15.804;2023-02-27T14:54:18;6.85;;;2.33;;
70026;SDS011;57506;50.092;15.804;2023-02-27T14:59:46;7.65;;;2.85;;
70026;SDS011;57506;50.092;15.804;2023-02-27T15:02:26;7.20;;;3.40;;
70026;SDS011;57506;50.092;15.804;2023-02-27T15:05:11;9.43;;;5.47;;
70026;SDS011;57506;50.092;15.804;2023-02-27T15:07:39;8.18;;;3.90;;
70026;SDS011;57506;50.092;15.804;2023-02-27T15:10:14;7.32;;;2.83;;
70026;SDS011;57506;50.092;15.804;2023-02-27T15:12:44;7.68;;;2.67;;
70026;SDS011;57506;50.092;15.804;2023-02-27T15:15:15;15.18;;;6.05;;
70026;SDS011;57506;50.092;15.804;2023-02-27T15:17:43;10.97;;;5.60;;
70026;SDS011;57506;50.092;15.804;2023-02-27T15:20:29;10.95;;;5.35;;
70026;SDS011;57506;50.092;15.804;2023-02-27T15:22:57;17.73;;;8.52;;
70026;SDS011;57506;50.092;15.804;2023-02-27T15:25:37;16.73;;;6.10;;
70026;SDS011;57506;50.092;15.804;2023-02-27T15:28:05;16.13;;;8.88;;
70026;SDS011;57506;50.092;15.804;2023-02-27T15:30:46;6.07;;;2.40;;
70026;SDS011;57506;50.092;15.804;2023-02-27T15:33:13;8.40;;;3.30;;
70026;SDS011;57506;50.092;15.804;2023-02-27T15:35:41;8.57;;;3.30;;
70026;SDS011;57506;50.092;15.804;2023-02-27T15:38:21;6.47;;;2.10;;
70026;SDS011;57506;50.092;15.804;2023-02-27T15:40:55;5.38;;;1.10;;
70026;SDS011;57506;50.092;15.804;2023-02-27T15:43:22;4.77;;;1.30;;
70026;SDS011;57506;50.092;15.804;2023-02-27T15:45:49;4.65;;;1.00;;
70026;SDS011;57506;50.092;15.804;2023-02-27T15:48:17;6.68;;;2.88;;
70026;SDS011;57506;50.092;15.804;2023-02-27T15:50:45;5.82;;;2.33;;
70026;SDS011;57506;50.092;15.804;2023-02-27T15:53:18;4.10;;;1.00;;
70026;SDS011;57506;50.092;15.804;2023-02-27T15:55:53;4.47;;;1.00;;
70026;SDS011;57506;50.092;15.804;2023-02-27T15:58:22;4.47;;;0.80;;
70026;SDS011;57506;50.092;15.804;2023-02-27T16:00:56;4.55;;;2.10;;
70026;SDS011;57506;50.092;15.804;2023-02-27T16:03:26;4.95;;;2.53;;
70026;SDS011;57506;50.092;15.804;2023-02-27T16:05:58;5.93;;;1.98;;
70026;SDS011;57506;50.092;15.804;2023-02-27T16:08:25;6.10;;;2.30;;
70026;SDS011;57506;50.092;15.804;2023-02-27T16:10:52;8.75;;;4.03;;
70026;SDS011;57506;50.092;15.804;2023-02-27T16:18:49;6.80;;;2.50;;
70026;SDS011;57506;50.092;15.804;2023-02-27T16:21:20;7.55;;;2.40;;
70026;SDS011;57506;50.092;15.804;2023-02-27T16:23:47;13.00;;;4.28;;
70026;SDS011;57506;50.092;15.804;2023-02-27T16:31:37;8.02;;;2.33;;
70026;SDS011;57506;50.092;15.804;2023-02-27T16:36:58;13.85;;;4.35;;
70026;SDS011;57506;50.092;15.804;2023-02-27T16:39:27;10.73;;;3.70;;
70026;SDS011;57506;50.092;15.804;2023-02-27T16:41:53;12.38;;;3.70;;
70026;SDS011;57506;50.092;15.804;2023-02-27T16:44:21;5.18;;;1.73;;
70026;SDS011;57506;50.092;15.804;2023-02-27T16:46:48;5.55;;;1.40;;
70026;SDS011;57506;50.092;15.804;2023-02-27T16:49:23;8.38;;;2.50;;
70026;SDS011;57506;50.092;15.804;2023-02-27T16:51:50;6.17;;;1.40;;
70026;SDS011;57506;50.092;15.804;2023-02-27T16:54:16;7.90;;;1.90;;
70026;SDS011;57506;50.092;15.804;2023-02-27T16:56:42;6.47;;;1.60;;
70026;SDS011;57506;50.092;15.804;2023-02-27T17:02:06;6.67;;;1.50;;
70026;SDS011;57506;50.092;15.804;2023-02-27T17:04:35;8.98;;;2.47;;
70026;SDS011;57506;50.092;15.804;2023-02-27T17:07:00;6.03;;;1.63;;
70026;SDS011;57506;50.092;15.804;2023-02-27T17:09:26;4.00;;;1.47;;
70026;SDS011;57506;50.092;15.804;2023-02-27T17:11:53;6.18;;;2.00;;
70026;SDS011;57506;50.092;15.804;2023-02-27T17:14:21;6.60;;;1.83;;
70026;SDS011;57506;50.092;15.804;2023-02-27T17:16:47;5.55;;;1.70;;
70026;SDS011;57506;50.092;15.804;2023-02-27T17:19:13;6.50;;;2.57;;
70026;SDS011;57506;50.092;15.804;2023-02-27T17:21:39;8.85;;;2.75;;
70026;SDS011;57506;50.092;15.804;2023-02-27T17:24:05;5.75;;;2.45;;
70026;SDS011;57506;50.092;15.804;2023-02-27T17:26:31;6.37;;;2.03;;
70026;SDS011;57506;50.092;15.804;2023-02-27T17:28:58;5.75;;;2.42;;
70026;SDS011;57506;50.092;15.804;2023-02-27T17:31:24;6.40;;;2.67;;
70026;SDS011;57506;50.092;15.804;2023-02-27T17:33:50;8.13;;;2.87;;
70026;SDS011;57506;50.092;15.804;2023-02-27T17:36:18;10.75;;;3.13;;
70026;SDS011;57506;50.092;15.804;2023-02-27T17:38:44;8.02;;;2.80;;
70026;SDS011;57506;50.092;15.804;2023-02-27T17:41:11;7.95;;;2.35;;
70026;SDS011;57506;50.092;15.804;2023-02-27T17:43:37;8.43;;;2.60;;
70026;SDS011;57506;50.092;15.804;2023-02-27T17:46:08;9.20;;;3.47;;
70026;SDS011;57506;50.092;15.804;2023-02-27T17:48:35;11.43;;;3.80;;
70026;SDS011;57506;50.092;15.804;2023-02-27T17:51:05;10.18;;;3.22;;
70026;SDS011;57506;50.092;15.804;2023-02-27T17:53:33;8.10;;;3.03;;
70026;SDS011;57506;50.092;15.804;2023-02-27T17:55:59;8.37;;;3.23;;
70026;SDS011;57506;50.092;15.804;2023-02-27T17:58:24;9.23;;;3.58;;
70026;SDS011;57506;50.092;15.804;2023-02-27T18:00:50;9.87;;;3.80;;
70026;SDS011;57506;50.092;15.804;2023-02-27T18:03:16;9.70;;;4.13;;
70026;SDS011;57506;50.092;15.804;2023-02-27T18:05:50;12.03;;;3.70;;
70026;SDS011;57506;50.092;15.804;2023-02-27T18:08:16;9.07;;;3.50;;
70026;SDS011;57506;50.092;15.804;2023-02-27T18:10:46;9.35;;;3.90;;
70026;SDS011;57506;50.092;15.804;2023-02-27T18:13:13;11.10;;;4.10;;
70026;SDS011;57506;50.092;15.804;2023-02-27T18:15:39;12.60;;;4.95;;
70026;SDS011;57506;50.092;15.804;2023-02-27T18:18:04;12.45;;;4.40;;
70026;SDS011;57506;50.092;15.804;2023-02-27T18:20:30;9.90;;;3.80;;
70026;SDS011;57506;50.092;15.804;2023-02-27T18:22:55;11.43;;;4.00;;
70026;SDS011;57506;50.092;15.804;2023-02-27T18:25:21;19.00;;;6.53;;
70026;SDS011;57506;50.092;15.804;2023-02-27T18:27:47;17.23;;;6.13;;
70026;SDS011;57506;50.092;15.804;2023-02-27T18:30:13;15.02;;;5.75;;
70026;SDS011;57506;50.092;15.804;2023-02-27T18:32:40;10.77;;;5.15;;
70026;SDS011;57506;50.092;15.804;2023-02-27T18:35:06;13.35;;;5.18;;
70026;SDS011;57506;50.092;15.804;2023-02-27T18:37:33;12.30;;;3.83;;